This is the latest recevied weather packets stored in our database for station/object FW1079. If no packets are shown the sender has not sent any weather packets the latest 10 day(s).
| Time | Temp. | Humidity | Pressure | Rain* | Wind** | Luminosity | Snow |
|---|---|---|---|---|---|---|---|
| 1777339748 | 12.78° C | 81% | 1016 hPa | 0 mm | - | - | - |
| 1777334648 | 12.78° C | 79% | 1016 hPa | 0 mm | - | - | - |
| 1777332548 | 12.78° C | 80% | 1016 hPa | 0 mm | - | - | - |
| 1777327148 | 13.33° C | 78% | 1017 hPa | 0 mm | - | - | - |
| 1777325948 | 13.33° C | 78% | 1017 hPa | 0 mm | - | - | - |
| 1777323248 | 13.89° C | 78% | 1017 hPa | 0 mm | - | - | - |
| 1777319948 | 15° C | 76% | 1017 hPa | 0 mm | - | - | - |
| 1777313349 | 18.33° C | 55% | 1016 hPa | 0 mm | - | - | - |
| 1777313049 | 18.89° C | 55% | 1016 hPa | 0 mm | - | - | - |
| 1777312748 | 18.89° C | 55% | 1016 hPa | 0 mm | - | - | - |
| 1777304348 | 23.33° C | 42% | 1016 hPa | 0 mm | - | - | - |
| 1777302548 | 23.33° C | 43% | 1016 hPa | 0 mm | - | - | - |
| 1777298648 | 22.78° C | 44% | 1017 hPa | 0 mm | - | - | - |
| 1777298048 | 23.33° C | 44% | 1017 hPa | 0 mm | - | - | - |
| 1777297748 | 23.33° C | 44% | 1017 hPa | 0 mm | - | - | - |
| 1777297447 | 22.78° C | 45% | 1017 hPa | 0 mm | - | - | - |
| 1777295048 | 23.33° C | 44% | 1017 hPa | 0 mm | - | - | - |
| 1777293248 | 23.89° C | 44% | 1017 hPa | 0 mm | - | - | - |
| 1777292047 | 23.89° C | 44% | 1017 hPa | 0 mm | - | - | - |
| 1777291448 | 23.89° C | 43% | 1017 hPa | 0 mm | - | - | - |
| 1777287247 | 23.89° C | 43% | 1018 hPa | 0 mm | - | - | - |
| 1777285747 | 23.89° C | 43% | 1018 hPa | 0 mm | - | - | - |
| 1777285447 | 23.89° C | 44% | 1018 hPa | 0 mm | - | - | - |
| 1777283048 | 23.89° C | 45% | 1019 hPa | 0 mm | - | - | - |
| 1777281847 | 22.78° C | 46% | 1019 hPa | 0 mm | - | - | - |
* Rain latest hour (hover to see other rain measurements)
** Current wind speed in m/s (hover to see current wind gust speed)